• Join FlightAware (Why Join?)
  • Login
  • US Flag 
01:11PM EDT


 

Airport Tracker/Info


-or-


 

Live Flight TrackerFlight Track Log ✈ EZY5453 ✈ 13-May-2014 ✈ EGKK / LGW - LCPH / PFO

Flight Track Log - Related Links

Times and Time Zones

All times are in EDT time to prevent confusion due to time zone crossing. See the EZY5453 flight status page for this flight to view local times or setup timezone preferences in your user account.

Time Position Orientation Groundspeed Altitude Reporting Facility
EDT Latitude Longitude Course Direction KTS MPH feet Rate Location/Type
03:01AM 50.7279 1.3909 112° Southeast  Level Estimated
03:02AM 50.6847 1.5474 113° Southeast  Level Estimated
03:03AM 50.6413 1.7037 114° Southeast  Level Estimated
03:04AM 50.5942 1.8724 114° Southeast  Level Estimated
03:05AM 50.5468 2.0407 114° Southeast  Level Estimated
03:05AM 51.1459 -0.2110 114° Southeast 65 75 600  Level FlightAware UK
03:05AM 51.1419 -0.2367 258° West 168 193 1,600 2,220 Climbing FlightAware ADS-B (EGLF / FAB)
03:06AM 51.1382 -0.2631 258° West 176 203 2,200 1,800 Climbing FlightAware ADS-B (EGKA / ESH)
03:06AM 51.1371 -0.2710 260° West 179 206 2,400 2,400 Climbing FlightAware ADS-B (EGLL / LHR)
03:06AM 51.1351 -0.2892 266° West 176 203 3,000 2,400 Climbing FlightAware ADS-B (EGLF / FAB)
03:06AM 51.1361 -0.3007 289° West 173 199 3,400 2,220 Climbing FlightAware ADS-B (EGKA / ESH)
03:06AM 51.1392 -0.3102 300° West 168 193 3,600 2,400 Climbing FlightAware ADS-B (EGHL / QLA)
03:06AM 51.1393 -0.3107 310° West 172 198 3,800 2,100 Climbing FlightAware ADS-B (EGLL / LHR)
03:06AM 51.1489 -0.3223 338° Northwest 174 200 4,300 1,620 Climbing FlightAware ADS-B (EGLL / LHR)
03:07AM 51.1621 -0.3274 349° North 182 209 4,600 1,500 Climbing FlightAware ADS-B (EGLF / FAB)
03:07AM 51.1774 -0.3309 North 187 215 5,100 1,440 Climbing FlightAware ADS-B (EGLL / LHR)
03:07AM 51.1777 -0.3309 353° North 185 213 5,300 1,200 Climbing FlightAware ADS-B (EGLF / FAB)
03:07AM 51.1937 -0.3217 37° Northeast 197 227 5,500 1,380 Climbing FlightAware ADS-B
03:07AM 51.2009 -0.3074 62° Northeast 208 239 5,800 1,200 Climbing FlightAware ADS-B (EGKA / ESH)
03:08AM 51.2036 -0.2957 75° East 219 252 5,900 540 Climbing FlightAware ADS-B
03:08AM 51.2042 -0.2909 81° East 223 257 5,900  Level FlightAware ADS-B (EGHL / QLA)
03:08AM 51.2055 -0.2763 82° East 239 275 5,900 180 Level FlightAware ADS-B (EGLF / FAB)
03:08AM 51.2058 -0.2732 82° East 252 290 6,000 480 Climbing FlightAware ADS-B (EGLF / FAB)
03:08AM 51.2100 -0.2316 77° East 279 321 6,100 1,980 Climbing FlightAware ADS-B
03:09AM 51.2150 -0.2015 75° East 284 327 6,800 2,820 Climbing FlightAware ADS-B (EGLF / FAB)
03:09AM 51.2227 -0.1567 75° East 285 328 7,900 3,120 Climbing FlightAware ADS-B (EGLF / FAB)
03:09AM 51.2240 -0.1489 76° East 283 326 8,000 2,520 Climbing FlightAware ADS-B (EGHO)
03:09AM 51.2292 -0.1180 75° East 293 337 8,700 2,700 Climbing FlightAware ADS-B (EGLF / FAB)
03:09AM 51.2356 -0.0803 75° East 293 337 9,500 2,280 Climbing FlightAware ADS-B (EGLL / LHR)
03:10AM 51.2474 -0.0118 75° East 303 349 10,600 1,800 Climbing FlightAware ADS-B (EGLC / LCY)
03:10AM 51.2517 0.0129 76° East 322 371 10,800 1,200 Climbing FlightAware ADS-B (EGHL / QLA)
03:10AM 51.2552 0.0330 75° East 336 387 11,100 1,620 Climbing FlightAware ADS-B (EGLC / LCY)
03:11AM 51.2673 0.1112 84° East 350 403 11,900 2,100 Climbing FlightAware ADS-B (EGHL / QLA)
03:11AM 51.2676 0.1344 91° East 352 405 12,400 2,700 Climbing FlightAware ADS-B (EGLF / FAB)
03:11AM 51.2666 0.1633 92° East 353 406 12,800 2,400 Climbing FlightAware ADS-B (EGHO)
03:11AM 51.2642 0.2156 94° East 356 410 13,600 2,340 Climbing FlightAware ADS-B (EGLC / LCY)
03:12AM 51.2605 0.2944 94° East 361 415 14,800 2,220 Climbing FlightAware ADS-B (EGLF / FAB)
03:13AM 51.2567 0.3744 94° East 368 423 15,900 2,220 Climbing FlightAware ADS-B (EGKA / ESH)
03:13AM 51.2560 0.3889 94° East 369 425 16,100 1,860 Climbing FlightAware ADS-B (EGLC / LCY)
03:13AM 51.2528 0.4559 93° East 377 434 16,800 2,160 Climbing FlightAware ADS-B (EGHO)
03:13AM 51.2520 0.4718 93° East 378 435 17,200 2,400 Climbing FlightAware ADS-B (EGHO)
03:14AM 51.2478 0.5568 95° East 375 432 18,300 1,980 Climbing FlightAware ADS-B (EGLC / LCY)
03:14AM 51.2439 0.6288 95° East 381 438 19,300 1,740 Climbing FlightAware ADS-B (EGTR / ETR)
03:15AM 51.2391 0.7212 95° East 387 445 20,100 1,440 Climbing FlightAware ADS-B (EGLC / LCY)
03:15AM 51.2356 0.7967 93° East 397 457 20,600 1,380 Climbing FlightAware ADS-B (EGHL / QLA)
03:15AM 51.2340 0.8412 93° East 401 461 21,000 1,800 Climbing FlightAware ADS-B (EGLC / LCY)
03:15AM 51.2335 0.8550 92° East 400 460 21,200 1,800 Climbing FlightAware ADS-B (EGLL / LHR)
03:15AM 51.2329 0.8713 92° East 400 460 21,300 1,800 Climbing FlightAware ADS-B (EGHO)
03:16AM 51.2297 0.9628 93° East 404 465 22,300 1,740 Climbing FlightAware ADS-B (EGLC / LCY)
03:16AM 51.2265 1.0554 93° East 406 467 23,100 1,380 Climbing FlightAware ADS-B (EGLC / LCY)
03:17AM 51.2233 1.1481 93° East 413 475 23,800 1,380 Climbing FlightAware ADS-B (EGLF / FAB)
03:17AM 51.2224 1.1732 92° East 414 476 24,000 1,380 Climbing FlightAware ADS-B (EGHO)
03:18AM 51.2200 1.2460 93° East 421 484 24,600 1,440 Climbing FlightAware ADS-B (EGBE / CVT)
03:18AM 51.2168 1.3370 93° East 422 486 25,400 1,320 Climbing FlightAware ADS-B (EGSR)
03:19AM 51.2128 1.4507 93° East 428 493 26,000 1,080 Climbing FlightAware ADS-B (EGLC / LCY)
03:19AM 51.2108 1.5079 93° East 432 497 26,400 1,920 Climbing FlightAware ADS-B (EGLF / FAB)
03:19AM 51.2098 1.5329 93° East 433 498 26,900 1,500 Climbing FlightAware ADS-B (EGHH / BOH)
03:20AM 51.2049 1.6434 97° East 433 498 27,400 900 Climbing FlightAware ADS-B (EGLC / LCY)
03:20AM 51.2034 1.6595 99° East 434 499 27,500 1,080 Climbing FlightAware ADS-B (EHRD / RTM)
03:20AM 51.1979 1.7109 99° East 435 501 27,800 1,200 Climbing FlightAware ADS-B (EGHO)
03:21AM 51.1855 1.8254 99° East 436 502 28,500 1,140 Climbing FlightAware ADS-B (EGHO)
03:21AM 51.1728 1.9439 99° East 440 506 29,200 1,020 Climbing FlightAware UK
03:21AM 51.1712 1.9585 100° East 442 509 29,300 540 Climbing FlightAware ADS-B (EGLF / FAB)
03:21AM 51.1691 1.9790 99° East 441 507 29,300 1,200 Level FlightAware ADS-B (EGHO)
03:22AM 51.1592 2.0562 107° East 442 509 29,900 1,140 Climbing FlightAware ADS-B (EGLF / FAB)
03:22AM 51.1514 2.0886 113° Southeast 440 506 30,000 660 Climbing FlightAware ADS-B (EGHO)
03:22AM 51.1477 2.1011 119° Southeast 444 511 30,100 1,380 Climbing FlightAware ADS-B (EGLC / LCY)
03:22AM 51.1471 2.1029 124° Southeast 444 511 30,300 780 Climbing FlightAware ADS-B (EGLF / FAB)
03:23AM 51.1636 2.0287 129° Southeast 447 514 30,700 900 Climbing FlightAware ADS-B (EGBE / CVT)
03:24AM 51.0229 2.3606 129° Southeast 444 511 31,700 960 Climbing FlightAware UK
03:24AM 50.9840 2.4366 129° Southeast 450 518 32,000 600 Climbing FlightAware UK
03:24AM 50.9754 2.4534 129° Southeast 452 520 32,100 1,080 Climbing FlightAware ADS-B (EGLC / LCY)
03:25AM 50.9562 2.4914 128° Southeast 442 509 32,400 1,020 Climbing FlightAware ADS-B (EGHO)
03:25AM 50.9153 2.5729 129° Southeast 453 521 32,900 780 Climbing FlightAware ADS-B (EGLF / FAB)
03:26AM 50.8711 2.6604 129° Southeast 455 524 33,300 780 Climbing FlightAware ADS-B (EGLC / LCY)
03:26AM 50.8646 2.6732 128° Southeast 450 518 33,400 900 Climbing FlightAware ADS-B (EGHO)
03:26AM 50.8185 2.7642 129° Southeast 454 522 33,900 480 Climbing FlightAware ADS-B (EHRD / RTM)
03:27AM 50.7744 2.8502 129° Southeast 467 537 34,000 120 Climbing FlightAware ADS-B (EGLF / FAB)
03:27AM 50.7577 2.8829 126° Southeast 471 542 34,000  Level FlightAware ADS-B (EHRD / RTM)
03:27AM 50.7485 2.9029 128° Southeast 470 541 34,000  Level FlightAware ADS-B (EGHO)
03:27AM 50.7577 2.8829 113° Southeast 471 542 34,000  Level FlightAware ADS-B (EHRD / RTM)
03:28AM 50.7066 3.0464 113° Southeast 466 536 34,000  Level FlightAware ADS-B (EGLF / FAB)
03:29AM 50.6740 3.1667 113° Southeast 464 534 34,000  Level FlightAware UK
03:29AM 50.6394 3.2882 114° Southeast 465 535 34,000  Level FlightAware ADS-B (EGLF / FAB)
03:30AM 50.6135 3.3810 114° Southeast 467 537 34,000  Level FlightAware ADS-B (EGLF / FAB)
03:30AM 50.5971 3.4399 114° Southeast 468 539 34,000  Level FlightAware ADS-B (EHRD / RTM)
03:31AM 50.5670 3.5466 113° Southeast 466 536 34,000 120 Level FlightAware ADS-B (EHGR / GLZ)
03:32AM 50.5259 3.6917 114° Southeast 468 539 34,200 420 Climbing FlightAware ADS-B (EHRD / RTM)
03:32AM 50.5006 3.7815 114° Southeast 467 537 34,600 960 Climbing FlightAware ADS-B (EGLF / FAB)
03:32AM 50.4970 3.7941 113° Southeast 463 533 34,600 720 Level FlightAware ADS-B (EHGR / GLZ)
03:32AM 50.4710 3.8858 114° Southeast 467 537 35,000 360 Climbing FlightAware ADS-B (EHRD / RTM)
03:33AM 50.4424 3.9864 114° Southeast 472 543 35,000  Level FlightAware ADS-B (EHRD / RTM)
03:33AM 50.4325 4.0208 198° South 473 544 35,000  Level FlightAware ADS-B (EDKL)
03:33AM 50.4249 4.0472 114° Southeast 467 537 35,000  Level FlightAware ADS-B (EHRD / RTM)
03:34AM 50.4035 4.1207 114° Southeast 463 533 35,000  Level FlightAware ADS-B (EHRD / RTM)
03:34AM 50.3752 4.2191 114° Southeast 464 534 35,000  Level FlightAware ADS-B (EGLF / FAB)
03:35AM 50.3675 4.2458 114° Southeast 466 536 35,000  Level FlightAware ADS-B (EHRD / RTM)
03:35AM 50.3190 4.4125 115° Southeast 467 537 35,000  Level FlightAware ADS-B (EHRD / RTM)
03:36AM 50.2868 4.5225 115° Southeast 469 540 35,000  Level FlightAware ADS-B (EHRD / RTM)
03:36AM 50.2695 4.5814 115° Southeast 469 540 35,000  Level FlightAware ADS-B (EDKL)
03:37AM 50.2175 4.7578 115° Southeast 521 600 35,000  Level FlightAware UK
03:38AM 50.2322 4.7080 115° Southeast 470 541 35,000  Level FlightAware ADS-B (EHRD / RTM)
03:39AM 50.1343 5.0383 115° Southeast 486 559 35,000  Level FlightAware ADS-B (EHRD / RTM)
03:39AM 50.0995 5.1532 114° Southeast 481 554 35,000  Level FlightAware ADS-B (EHGR / GLZ)
03:40AM 50.0677 5.2585 114° Southeast 482 555 35,000  Level FlightAware ADS-B (EHGR / GLZ)
03:40AM 50.0412 5.3466 115° Southeast 485 558 35,000  Level FlightAware ADS-B (EHRD / RTM)
03:41AM 50.0134 5.4385 115° Southeast 485 558 35,000  Level FlightAware ADS-B (EHRD / RTM)
03:42AM 49.9648 5.5977 115° Southeast 484 557 35,000  Level FlightAware ADS-B (EHRD / RTM)
03:42AM 49.9288 5.7149 116° Southeast 484 557 35,000  Level FlightAware ADS-B (EDKL)
03:43AM 49.9006 5.8060 116° Southeast 482 555 35,000  Level FlightAware ADS-B (EDKL)
03:44AM 49.8580 5.9440 116° Southeast 482 555 35,000  Level FlightAware ADS-B (EDKL)
03:45AM 49.7993 6.1320 116° Southeast 481 554 35,000  Level FlightAware ADS-B (EHGR / GLZ)
03:45AM 49.7622 6.2502 116° Southeast 479 551 35,000  Level FlightAware ADS-B (EHGR / GLZ)
03:46AM 49.7083 6.4204 116° Southeast 479 551 35,000  Level FlightAware ADS-B (EHGR / GLZ)
03:47AM 49.6696 6.5427 116° Southeast 480 552 35,000  Level FlightAware ADS-B (EHGR / GLZ)
03:48AM 49.6273 6.6751 116° Southeast 479 551 35,000  Level FlightAware ADS-B (EHGR / GLZ)
03:59AM 48.8119 8.6893 137° Southeast 471 542 35,000  Level FlightAware ADS-B (ETSI / IGS)
04:00AM 48.7486 8.7787 137° Southeast 471 542 35,000  Level FlightAware ADS-B (ETSI / IGS)
04:01AM 48.6841 8.8690 137° Southeast 470 541 35,000  Level FlightAware ADS-B (ETSI / IGS)
04:01AM 48.6242 8.9526 137° Southeast 471 542 35,000  Level FlightAware ADS-B (ETSI / IGS)
04:02AM 48.5624 9.0384 137° Southeast 471 542 35,000  Level FlightAware ADS-B (ETSI / IGS)
04:02AM 48.5093 9.1119 137° Southeast 473 544 35,000  Level FlightAware ADS-B (ETSI / IGS)
04:03AM 48.4884 9.1408 138° Southeast 475 547 35,000  Level FlightAware ADS-B (EDDM / MUC)
04:05AM 48.2532 9.4637 138° Southeast 481 554 35,000  Level FlightAware ADS-B (EDDM / MUC)
04:06AM 48.1746 9.5661 140° Southeast 482 555 35,000  Level FlightAware ADS-B (EDDM / MUC)
04:07AM 48.1058 9.6543 139° Southeast 482 555 35,000  Level FlightAware ADS-B (EDDM / MUC)
04:07AM 48.0364 9.7438 139° Southeast 482 555 35,000  Level FlightAware ADS-B (EDDM / MUC)
04:08AM 47.9817 9.8140 139° Southeast 482 555 35,000  Level FlightAware ADS-B (ETSE)
04:08AM 47.9286 9.8818 139° Southeast 484 557 35,000  Level FlightAware ADS-B (ETSE)
04:09AM 47.8902 9.9307 140° Southeast 484 557 35,000  Level FlightAware ADS-B (ETSI / IGS)
04:09AM 47.8521 9.9791 140° Southeast 485 558 35,000  Level FlightAware ADS-B (ETSE)
04:09AM 47.8079 10.0307 143° Southeast 482 555 35,000  Level FlightAware ADS-B (ETSI / IGS)
04:10AM 47.7709 10.0715 143° Southeast 483 556 35,000  Level FlightAware ADS-B (EDDM / MUC)
04:10AM 47.7146 10.1340 143° Southeast 482 555 35,000  Level FlightAware ADS-B (ETSE)
04:11AM 47.6179 10.2408 143° Southeast 482 555 35,000  Level FlightAware ADS-B (ETSE)
04:12AM 47.5446 10.3210 143° Southeast 482 555 35,000  Level FlightAware ADS-B (ETSE)
04:13AM 47.4812 10.3905 143° Southeast 483 556 35,000  Level FlightAware ADS-B (ETSE)
04:13AM 47.4261 10.4506 145° Southeast 482 555 35,000  Level FlightAware ADS-B (ETSE)
04:13AM 47.4102 10.4669 147° Southeast 479 551 35,000 120 Level FlightAware ADS-B (EDDM / MUC)
04:14AM 47.3510 10.5181 152° Southeast 475 547 35,100 120 Climbing FlightAware ADS-B (ETSE)
04:14AM 47.3564 10.5140 155° Southeast 472 543 35,100 -180 Level FlightAware ADS-B (EDDM / MUC)
04:14AM 47.2841 10.5662 158° South 470 541 35,000 -60 Descending FlightAware ADS-B (ETSE)
04:16AM 47.1292 10.6599 157° South 466 536 35,000  Level FlightAware ADS-B (ETSE)
04:16AM 47.0834 10.6887 157° South 464 534 35,000  Level FlightAware ADS-B (ETSE)
04:17AM 46.9904 10.7472 157° South 465 535 35,000  Level FlightAware ADS-B (ETSE)
04:17AM 46.9281 10.7863 157° South 465 535 35,000  Level FlightAware ADS-B (ETSE)
04:18AM 46.8745 10.8218 153° Southeast 471 542 35,000  Level FlightAware ADS-B (ETSI / IGS)
04:18AM 46.8122 10.8741 147° Southeast 477 549 35,000  Level FlightAware ADS-B (ETSE)
04:19AM 46.7560 10.9336 141° Southeast 483 556 35,000  Level FlightAware ADS-B (ETSE)
04:19AM 46.7590 10.9301 141° Southeast 482 555 35,000  Level FlightAware ADS-B (EDDM / MUC)
04:19AM 46.6956 11.0139 133° Southeast 488 562 35,000 60 Level FlightAware ADS-B (ETSI / IGS)
04:20AM 46.6591 11.0732 130° Southeast 487 560 35,100  Climbing FlightAware ADS-B (ETSE)
04:21AM 46.5863 11.1954 131° Southeast 486 559 35,000 -120 Descending FlightAware ADS-B (ETSE)
04:21AM 46.5377 11.2764 131° Southeast 486 559 35,000  Level FlightAware ADS-B (ETSE)
04:22AM 46.4808 11.3713 131° Southeast 483 556 35,000  Level FlightAware ADS-B (ETSE)
04:23AM 46.4353 11.4467 131° Southeast 485 558 35,000  Level FlightAware ADS-B (ETSE)
04:23AM 46.3750 11.5462 131° Southeast 488 562 35,000  Level FlightAware ADS-B (EDDM / MUC)
04:24AM 46.3329 11.6156 131° Southeast 488 562 35,000  Level FlightAware ADS-B (ETSE)
04:24AM 46.2757 11.7098 131° Southeast 491 565 35,000  Level FlightAware ADS-B (ETSE)
04:25AM 46.2122 11.8134 132° Southeast 492 566 35,000  Level FlightAware ADS-B (ETSE)
04:26AM 46.1486 11.9170 132° Southeast 492 566 35,000  Level FlightAware ADS-B (ETSE)
04:26AM 46.0763 12.0346 132° Southeast 492 566 35,000  Level FlightAware ADS-B (ETSE)
04:27AM 46.0263 12.1150 132° Southeast 492 566 35,000  Level FlightAware ADS-B (ETSE)
04:28AM 45.9670 12.2110 132° Southeast 492 566 35,000  Level FlightAware ADS-B (ETSE)
04:28AM 45.9224 12.2831 132° Southeast 493 567 35,000  Level FlightAware ADS-B (ETSE)
04:29AM 45.8641 12.3764 132° Southeast 494 568 35,000  Level FlightAware ADS-B (ETSE)
04:29AM 45.8090 12.4640 132° Southeast 494 568 35,000  Level FlightAware ADS-B (LIPT / VIC)
04:30AM 45.7408 12.5729 132° Southeast 494 568 35,000  Level FlightAware ADS-B (ETSE)
04:31AM 45.6918 12.6503 132° Southeast 495 570 35,000  Level FlightAware ADS-B (ETSE)
04:31AM 45.6617 12.6977 132° Southeast 495 570 35,000  Level FlightAware ADS-B (ETSE)
04:32AM 45.6304 12.7473 132° Southeast 496 571 35,000  Level FlightAware ADS-B (LIPT / VIC)
04:34AM 45.4104 13.0936 131° Southeast 502 578 35,000 360 Level FlightAware ADS-B (LIPT / VIC)
04:35AM 45.2980 13.3062 127° Southeast 501 577 36,200 720 Climbing FlightAware ADS-B
04:36AM 45.2435 13.4093 127° Southeast 503 579 36,500 600 Climbing FlightAware ADS-B
04:36AM 45.1900 13.5106 127° Southeast 500 575 37,000 300 Climbing FlightAware ADS-B
04:37AM 45.1602 13.5665 127° Southeast 506 582 37,000  Level FlightAware ADS-B
04:39AM 44.9888 13.8867 127° Southeast 510 587 37,000  Level FlightAware ADS-B
04:40AM 44.8757 14.0960 127° Southeast 511 588 37,000  Level FlightAware ADS-B
04:41AM 44.7885 14.2565 127° Southeast 512 589 37,000  Level FlightAware ADS-B
04:42AM 44.6726 14.4682 128° Southeast 516 594 37,000  Level FlightAware ADS-B
04:43AM 44.5848 14.6277 128° Southeast 518 596 37,000  Level FlightAware ADS-B
04:44AM 44.4970 14.7856 128° Southeast 515 593 37,100  Climbing FlightAware ADS-B
04:45AM 44.4417 14.8850 128° Southeast 513 590 37,000 -120 Descending FlightAware ADS-B
04:46AM 44.3806 14.9945 128° Southeast 513 590 37,000  Level FlightAware ADS-B
04:46AM 44.3233 15.0967 128° Southeast 513 590 37,000  Level FlightAware ADS-B
04:47AM 44.2636 15.2027 128° Southeast 514 592 37,000  Level FlightAware ADS-B
04:48AM 44.2053 15.3060 128° Southeast 516 594 37,000  Level FlightAware ADS-B
04:49AM 44.1171 15.4615 128° Southeast 518 596 37,000  Level FlightAware ADS-B
04:49AM 44.0575 15.5663 128° Southeast 520 598 37,000  Level FlightAware ADS-B
04:50AM 43.9979 15.6706 128° Southeast 522 601 37,000 60 Level FlightAware ADS-B
04:51AM 43.9092 15.8252 129° Southeast 522 601 37,100 60 Climbing FlightAware ADS-B
04:52AM 43.8477 15.9317 129° Southeast 519 597 37,100 -120 Level FlightAware ADS-B
04:52AM 43.7876 16.0357 129° Southeast 520 598 37,000 -120 Descending FlightAware ADS-B
04:53AM 43.6981 16.1892 129° Southeast 522 601 37,000  Level FlightAware ADS-B
04:53AM 43.6811 16.2184 128° Southeast 522 601 37,000  Level FlightAware ADS-B
04:54AM 43.6371 16.2937 128° Southeast 524 603 37,000  Level FlightAware ADS-B
04:54AM 43.6115 16.3374 129° Southeast 526 605 37,000  Level FlightAware ADS-B
04:55AM 43.5893 16.3752 128° Southeast 525 604 37,000  Level FlightAware ADS-B
04:55AM 43.5450 16.4507 129° Southeast 527 606 37,000  Level FlightAware ADS-B
04:55AM 43.5444 16.4517 128° Southeast 526 605 37,000  Level FlightAware ADS-B
04:55AM 43.4975 16.5314 128° Southeast 529 609 37,000  Level FlightAware ADS-B
04:56AM 43.4589 16.5967 129° Southeast 533 613 37,000  Level FlightAware ADS-B
04:56AM 43.4507 16.6107 128° Southeast 532 612 37,000  Level FlightAware ADS-B
04:56AM 43.4035 16.6904 129° Southeast 535 616 37,000  Level FlightAware ADS-B
04:57AM 43.3925 16.7089 129° Southeast 536 617 37,000  Level FlightAware ADS-B
04:57AM 43.3567 16.7689 129° Southeast 535 616 37,000  Level FlightAware ADS-B
04:57AM 43.3299 16.8137 129° Southeast 537 618 37,000  Level FlightAware ADS-B
04:57AM 43.3102 16.8468 129° Southeast 536 617 37,000 120 Level FlightAware ADS-B
04:58AM 43.2636 16.9247 129° Southeast 537 618 37,100  Climbing FlightAware ADS-B
04:58AM 43.2173 17.0019 129° Southeast 535 616 37,000 -120 Descending FlightAware ADS-B
04:59AM 43.1695 17.0816 129° Southeast 535 616 37,000  Level FlightAware ADS-B
05:00AM 43.1210 17.1626 129° Southeast 536 617 37,000  Level FlightAware ADS-B
05:00AM 43.0742 17.2402 129° Southeast 536 617 37,000  Level FlightAware ADS-B
05:00AM 43.0272 17.3176 129° Southeast 539 620 37,000  Level FlightAware ADS-B
05:01AM 43.0415 17.2942 130° Southeast 538 619 37,000  Level FlightAware ADS-B
05:01AM 42.9793 17.3962 129° Southeast 541 623 37,000  Level FlightAware ADS-B
05:01AM 42.9311 17.4752 129° Southeast 543 625 37,000  Level FlightAware ADS-B
05:02AM 42.8848 17.5511 129° Southeast 543 625 37,000  Level FlightAware ADS-B
05:03AM 42.8345 17.6332 129° Southeast 543 625 37,000  Level FlightAware ADS-B
05:03AM 42.7869 17.7108 129° Southeast 541 623 37,000  Level FlightAware ADS-B
05:03AM 42.7465 17.7765 129° Southeast 540 621 37,000 60 Level FlightAware ADS-B
05:04AM 42.6948 17.8605 129° Southeast 536 617 37,100  Climbing FlightAware ADS-B
05:04AM 42.6535 17.9273 130° Southeast 533 613 37,000 -120 Descending FlightAware ADS-B
05:05AM 42.5959 18.0205 129° Southeast 530 610 37,000  Level FlightAware ADS-B
05:06AM 42.5501 18.0942 130° Southeast 530 610 37,000  Level FlightAware ADS-B
05:06AM 42.5014 18.1721 130° Southeast 532 612 37,000  Level FlightAware ADS-B
05:06AM 42.4623 18.2348 130° Southeast 535 616 37,000  Level FlightAware ADS-B
05:07AM 42.4054 18.3255 130° Southeast 536 617 37,000  Level FlightAware ADS-B
05:07AM 42.3577 18.4013 130° Southeast 537 618 37,000  Level FlightAware ADS-B
05:08AM 42.3083 18.4799 130° Southeast 538 619 37,000  Level FlightAware ADS-B
05:08AM 42.2608 18.5552 130° Southeast 539 620 37,000  Level FlightAware ADS-B
05:09AM 42.2112 18.6338 130° Southeast 539 620 37,000  Level FlightAware ADS-B
05:09AM 42.1628 18.7098 130° Southeast 538 619 37,000  Level FlightAware ADS-B
05:10AM 42.1154 18.7842 130° Southeast 539 620 37,000  Level FlightAware ADS-B
05:10AM 42.1105 18.7918 130° Southeast 539 620 37,000  Level FlightAware ADS-B
05:11AM 42.0279 18.9215 130° Southeast 541 623 37,000  Level FlightAware ADS-B
05:11AM 42.0015 18.9627 130° Southeast 541 623 37,000  Level FlightAware ADS-B
05:14AM 41.8653 19.2768 120° Southeast  Level Estimated
05:15AM 41.8072 19.4101 120° Southeast  Level Estimated
05:16AM 41.7488 19.5431 120° Southeast  Level Estimated
05:17AM 41.6903 19.6758 121° Southeast  Level Estimated
05:18AM 41.6316 19.8084 121° Southeast  Level Estimated
05:19AM 41.5728 19.9407 121° Southeast  Level Estimated
05:20AM 41.5139 20.0727 121° Southeast  Level Estimated
05:21AM 41.4548 20.2045 121° Southeast  Level Estimated
05:22AM 41.3955 20.3361 121° Southeast  Level Estimated
05:23AM 41.3361 20.4674 121° Southeast  Level Estimated
05:24AM 41.2765 20.5985 121° Southeast  Level Estimated
05:25AM 41.2168 20.7293 121° Southeast  Level Estimated
05:26AM 41.1570 20.8599 121° Southeast  Level Estimated
05:27AM 41.0969 20.9903 121° Southeast  Level Estimated
05:28AM 41.0368 21.1204 121° Southeast  Level Estimated
05:29AM 40.9765 21.2503 122° Southeast  Level Estimated
05:30AM 40.9160 21.3799 122° Southeast  Level Estimated
05:31AM 40.8555 21.5094 122° Southeast  Level Estimated
05:32AM 40.7947 21.6385 122° Southeast  Level Estimated
05:33AM 40.7338 21.7675 122° Southeast  Level Estimated
05:34AM 40.6728 21.8962 122° Southeast  Level Estimated
05:35AM 40.6117 22.0247 122° Southeast  Level Estimated
05:36AM 40.5504 22.1529 122° Southeast  Level Estimated
05:37AM 40.4889 22.2809 122° Southeast  Level Estimated
05:38AM 40.4273 22.4087 122° Southeast  Level Estimated
05:39AM 40.3656 22.5362 122° Southeast  Level Estimated
05:40AM 40.3037 22.6635 122° Southeast  Level Estimated
05:41AM 40.2417 22.7906 123° Southeast  Level Estimated
05:42AM 40.1796 22.9174 123° Southeast  Level Estimated
05:43AM 40.1173 23.0440 123° Southeast  Level Estimated
05:44AM 40.0549 23.1704 123° Southeast  Level Estimated
05:45AM 39.9923 23.2965 123° Southeast  Level Estimated
05:46AM 39.9296 23.4224 123° Southeast  Level Estimated
05:47AM 39.8668 23.5481 123° Southeast  Level Estimated
05:48AM 39.8038 23.6735 123° Southeast  Level Estimated
05:49AM 39.7407 23.7987 123° Southeast  Level Estimated
05:50AM 39.6775 23.9237 123° Southeast  Level Estimated
05:51AM 39.6141 24.0485 123° Southeast  Level Estimated
05:52AM 39.5506 24.1730 123° Southeast  Level Estimated
05:53AM 39.4870 24.2973 124° Southeast  Level Estimated
05:54AM 39.4232 24.4214 124° Southeast  Level Estimated
05:55AM 39.3593 24.5452 124° Southeast  Level Estimated
05:56AM 39.2953 24.6688 124° Southeast  Level Estimated
05:57AM 39.2312 24.7922 124° Southeast  Level Estimated
05:58AM 39.1669 24.9154 124° Southeast  Level Estimated
05:59AM 39.1024 25.0383 124° Southeast  Level Estimated
06:00AM 39.0379 25.1611 124° Southeast  Level Estimated
06:01AM 38.9732 25.2836 124° Southeast  Level Estimated
06:02AM 38.9084 25.4058 124° Southeast  Level Estimated
06:03AM 38.8435 25.5279 124° Southeast  Level Estimated
06:04AM 38.7784 25.6497 124° Southeast  Level Estimated
06:05AM 38.7132 25.7713 124° Southeast  Level Estimated
06:06AM 38.6479 25.8927 125° Southeast  Level Estimated
06:07AM 38.5825 26.0138 125° Southeast  Level Estimated
06:08AM 38.5169 26.1348 125° Southeast  Level Estimated
06:09AM 38.4513 26.2555 125° Southeast  Level Estimated
06:10AM 38.3854 26.3760 125° Southeast  Level Estimated
06:11AM 38.3195 26.4963 125° Southeast  Level Estimated
06:12AM 38.2535 26.6163 125° Southeast  Level Estimated
06:13AM 38.1873 26.7362 125° Southeast  Level Estimated
06:14AM 38.1210 26.8558 125° Southeast  Level Estimated
06:15AM 38.0546 26.9752 125° Southeast  Level Estimated
06:16AM 37.9880 27.0944 125° Southeast  Level Estimated
06:17AM 37.9214 27.2134 125° Southeast  Level Estimated
06:18AM 37.8546 27.3321 125° Southeast  Level Estimated
06:19AM 37.7877 27.4506 126° Southeast  Level Estimated
06:20AM 37.7207 27.5690 126° Southeast  Level Estimated
06:21AM 37.6536 27.6871 126° Southeast  Level Estimated
06:22AM 37.5863 27.8050 126° Southeast  Level Estimated
06:23AM 37.5189 27.9227 126° Southeast  Level Estimated
06:24AM 37.4515 28.0401 126° Southeast  Level Estimated
06:25AM 37.3839 28.1574 126° Southeast  Level Estimated
06:26AM 37.3161 28.2745 126° Southeast  Level Estimated
06:27AM 37.2483 28.3913 126° Southeast  Level Estimated
06:28AM 37.1804 28.5079 126° Southeast  Level Estimated
06:29AM 37.1123 28.6243 126° Southeast  Level Estimated
06:30AM 37.0441 28.7406 126° Southeast  Level Estimated
06:31AM 36.9758 28.8566 126° Southeast  Level Estimated
06:32AM 36.9074 28.9724 126° Southeast  Level Estimated
06:33AM 36.8389 29.0879 127° Southeast  Level Estimated
06:34AM 36.7671 29.2087 127° Southeast  Level Estimated
06:35AM 36.6952 29.3291 127° Southeast  Level Estimated
06:36AM 36.6232 29.4494 127° Southeast  Level Estimated
06:37AM 36.5510 29.5694 127° Southeast  Level Estimated
06:38AM 36.4787 29.6892 127° Southeast  Level Estimated
06:39AM 36.4063 29.8088 127° Southeast  Level Estimated
06:40AM 36.3338 29.9282 127° Southeast  Level Estimated
06:41AM 36.2612 30.0473 127° Southeast  Level Estimated
06:42AM 36.1884 30.1662 127° Southeast  Level Estimated
06:43AM 36.1155 30.2849 127° Southeast  Level Estimated
06:44AM 36.0425 30.4034 127° Southeast  Level Estimated
06:45AM 35.9694 30.5216 127° Southeast  Level Estimated
06:46AM 35.8962 30.6397 127° Southeast  Level Estimated
06:47AM 35.8229 30.7575 127° Southeast  Level Estimated
06:48AM 35.7494 30.8751 128° Southeast  Level Estimated
06:49AM 35.6759 30.9925 128° Southeast  Level Estimated
06:50AM 35.6022 31.1096 128° Southeast  Level Estimated
06:51AM 35.5284 31.2266 128° Southeast  Level Estimated
06:52AM 35.4545 31.3433 128° Southeast  Level Estimated
06:53AM 35.3805 31.4599 128° Southeast  Level Estimated
06:54AM 35.3063 31.5762 128° Southeast  Level Estimated
06:55AM 35.2321 31.6923 128° Southeast  Level Estimated
06:56AM 35.1577 31.8081 128° Southeast  Level Estimated
06:57AM 35.0833 31.9238 128° Southeast  Level Estimated
06:58AM 35.0087 32.0393 128° Southeast  Level Estimated
06:59AM 34.9340 32.1545 128° Southeast  Level Estimated
07:00AM 34.8592 32.2696 128° Southeast  Level Estimated
07:01AM 34.7843 32.3844 128° Southeast  Level Estimated
07:02AM 34.7180 32.4857 129° Southeast  Level Estimated
07:03AM 34.7180 32.4857 North  Level Estimated
07:04AM 34.7180 32.4857 North  Level Estimated
07:05AM 34.7180 32.4857 North  Level Estimated